Capital City Airport
KLAN : now visible

Airfield :











YOU CAN JOIN US ON...

 
LOGIN :

Register | Disclaimer

   EN    FR    IT 

 









Legend :    VFR   Marginal VFR   IFR   Intensive IFR   Very Intensive IFR
Visi :
Ceiling :
>= 8 km
>= 3000ft
5 to 8 km
1000 to 3000 ft
1500m to 5 km
500 to 1000 ft
800 to 1500m
200 to 500 ft
< 800m
< 200 ft
Symbols :   Thunderstorms  Fog  Heavy snow  Heavy precipitations  Wind > 20 kt






- Airport Elevation : 861 ft
- IATA code : LAN


KLAN - Capital City

CURRENT METAR :
  • 110704Z 26012KT 10SM BKN008 OVC017 21/19 A2984 RMK AO2 CIG 005V011 T02060189

EXPIRED METARs :
  • 110653Z 26010KT 10SM SCT007 BKN018 21/19 A2984 RMK AO2 SLP099 T02060189
  • 110642Z 26013KT 10SM BKN007 21/19 A2984 RMK AO2 CIG 005V009 T02060189
  • 110553Z 26010KT 10SM FEW009 21/19 A2985 RMK AO2 RAB11E22 SLP100 P0000 60025 T02060189 10283 20206 51003
  • 110528Z 27010KT 10SM BKN009 21/19 A2984 RMK AO2 RAB11E22 CIG 006V014 P0000 T02060194
  • 110507Z 24011G17KT 10SM OVC013 21/19 A2985 RMK AO2 T02110189
  • 110453Z 24009KT 10SM OVC015 21/19 A2985 RMK AO2 SLP100 T02060189 403170206

TAF KLAN
Valid from the 11 at 07:00 until the 12 at 06:00 UTC


110634Z 1107/1206 26010KT P6SM FEW009
FM111000 27005KT 5SM BR OVC010
FM111400 31006KT P6SM BKN015
FM111500 32006KT P6SM BKN025
FM111600 33006KT P6SM BKN060
KZOB FIR / North America



MET'MAP, your aeronautical weather chart ! - Copyright ORBIFLY December 2007 - Disclaimer

ORBIFLY MET'MAP TEAM :

Programming & Development : Alexandra Zaïnal
Concept & original design : Baudouin d'Aumeries
Assistance for programming : Marc-Olivier Méhu
Technical & hardware support : Manuel Goepfert

Contact : metmap@orbifly.com




SOURCES & CREDITS :

   NOAA       Earth
Advisory